createdAt,value
2019-05-17T00:02:07.017Z,13.57
2019-05-17T00:04:38.037Z,12.07
2019-05-17T00:07:09.284Z,12.93
2019-05-17T00:09:40.543Z,16.23
2019-05-17T00:12:11.406Z,14.93
2019-05-17T00:14:42.259Z,14.30
2019-05-17T00:17:13.123Z,13.20
2019-05-17T00:19:46.369Z,13.13
2019-05-17T00:22:16.847Z,14.57
2019-05-17T00:24:47.852Z,13.27
2019-05-17T00:27:18.818Z,14.50
2019-05-17T00:29:49.886Z,13.47
2019-05-17T00:32:20.797Z,12.57
2019-05-17T00:34:51.677Z,13.50
2019-05-17T00:37:22.636Z,13.57
2019-05-17T00:39:53.615Z,13.77
2019-05-17T00:42:26.457Z,13.27
2019-05-17T00:44:57.027Z,15.30
2019-05-17T00:47:27.873Z,13.83
2019-05-17T00:49:58.808Z,13.27
2019-05-17T00:52:29.717Z,13.40
2019-05-17T00:55:00.667Z,14.57
2019-05-17T00:57:31.578Z,13.67
2019-05-17T01:00:02.487Z,13.50
2019-05-17T01:02:36.293Z,14.53
2019-05-17T01:05:07.381Z,13.97
2019-05-17T01:07:38.253Z,15.13
2019-05-17T01:10:10.009Z,14.20
2019-05-17T01:12:40.836Z,14.77
2019-05-17T01:15:12.129Z,14.27
2019-05-17T01:17:43.066Z,13.20
2019-05-17T01:20:14.274Z,13.37
2019-05-17T01:22:47.478Z,12.77
2019-05-17T01:25:17.763Z,13.03
2019-05-17T01:27:48.659Z,13.57
2019-05-17T01:30:20.071Z,13.30
2019-05-17T01:32:51.661Z,13.43
2019-05-17T01:35:22.584Z,12.43
2019-05-17T01:37:53.405Z,12.87
2019-05-17T01:40:26.443Z,13.53
2019-05-17T01:42:58.160Z,12.73
2019-05-17T01:45:29.150Z,11.50
2019-05-17T01:48:00.019Z,12.23
2019-05-17T01:50:31.047Z,12.00
2019-05-17T01:53:04.126Z,13.17
2019-05-17T01:55:37.197Z,13.73
2019-05-17T01:58:07.747Z,13.70
2019-05-17T02:00:40.090Z,13.33
2019-05-17T02:03:11.039Z,13.40
2019-05-17T02:05:41.910Z,13.10
2019-05-17T02:08:13.089Z,12.57
2019-05-17T02:10:46.519Z,13.07
2019-05-17T02:13:16.794Z,13.13
2019-05-17T02:15:47.650Z,12.93
2019-05-17T02:18:18.663Z,12.67
2019-05-17T02:20:49.918Z,13.50
2019-05-17T02:23:22.283Z,12.53
2019-05-17T02:25:53.291Z,13.77
2019-05-17T02:28:26.386Z,12.03
2019-05-17T02:30:58.647Z,13.80
2019-05-17T02:33:33.335Z,12.30
2019-05-17T02:36:04.012Z,12.07
2019-05-17T02:38:35.713Z,13.47
2019-05-17T02:41:06.841Z,13.20
2019-05-17T02:43:39.067Z,12.47
2019-05-17T02:46:13.620Z,12.90
2019-05-17T02:48:43.786Z,12.50
2019-05-17T02:51:14.688Z,13.47
2019-05-17T02:53:45.849Z,13.17
2019-05-17T02:56:17.077Z,12.40
2019-05-17T02:58:49.114Z,14.10
2019-05-17T03:01:22.921Z,13.87
2019-05-17T03:03:55.458Z,14.13
2019-05-17T03:06:26.540Z,14.83
2019-05-17T03:08:57.597Z,13.13
2019-05-17T03:11:28.916Z,14.07
2019-05-17T03:14:03.670Z,14.80
2019-05-17T03:16:33.853Z,14.23
2019-05-17T03:19:05.252Z,13.93
2019-05-17T03:21:36.158Z,15.10
2019-05-17T03:24:08.944Z,15.33
2019-05-17T03:26:42.730Z,17.30
2019-05-17T03:29:13.661Z,15.47
2019-05-17T03:31:53.446Z,13.00
2019-05-17T03:34:18.691Z,14.00
2019-05-17T03:36:55.843Z,14.33
2019-05-17T03:39:23.424Z,14.00
2019-05-17T03:41:54.394Z,13.17
2019-05-17T03:44:26.730Z,14.87
2019-05-17T03:46:57.570Z,15.03
2019-05-17T03:49:28.668Z,15.57
2019-05-17T03:52:02.820Z,14.40
2019-05-17T03:54:33.658Z,15.10
2019-05-17T03:57:04.670Z,14.20
2019-05-17T03:59:35.626Z,14.93
2019-05-17T04:02:06.567Z,14.07
2019-05-17T04:04:38.964Z,13.53
2019-05-17T04:07:12.756Z,14.47
2019-05-17T04:09:44.042Z,15.20
2019-05-17T04:12:15.054Z,12.87
2019-05-17T04:14:46.070Z,14.60
2019-05-17T04:17:18.112Z,14.80
2019-05-17T04:19:49.415Z,15.77
2019-05-17T04:22:23.619Z,15.87
2019-05-17T04:24:53.628Z,13.37
2019-05-17T04:27:24.646Z,14.77
2019-05-17T04:29:55.736Z,15.40
2019-05-17T04:32:26.624Z,13.63
2019-05-17T04:34:58.660Z,14.57
2019-05-17T04:37:33.594Z,15.77
2019-05-17T04:40:03.811Z,14.97
2019-05-17T04:42:36.006Z,16.47
2019-05-17T04:45:07.707Z,14.87
2019-05-17T04:47:38.630Z,14.13
2019-05-17T04:50:12.927Z,15.87
2019-05-17T04:52:43.098Z,16.27
2019-05-17T04:55:15.754Z,15.77
2019-05-17T04:57:46.632Z,14.77
2019-05-17T05:00:18.962Z,16.27
2019-05-17T05:02:52.535Z,15.60
2019-05-17T05:05:23.133Z,14.33
2019-05-17T05:07:55.528Z,15.70
2019-05-17T05:10:26.428Z,15.40
2019-05-17T05:12:57.248Z,15.80
2019-05-17T05:15:43.735Z,14.70
2019-05-17T05:18:14.328Z,13.40
2019-05-17T05:20:47.276Z,13.77
2019-05-17T05:23:18.192Z,14.93
2019-05-17T05:25:52.306Z,14.67
2019-05-17T05:28:25.053Z,12.43
2019-05-17T05:31:01.858Z,14.70
2019-05-17T05:33:33.408Z,14.77
2019-05-17T05:36:04.347Z,14.20
2019-05-17T05:38:37.344Z,13.77
2019-05-17T05:41:08.281Z,13.77
2019-05-17T05:43:39.157Z,11.33
2019-05-17T05:46:11.662Z,10.90
2019-05-17T05:48:42.753Z,10.67
2019-05-17T05:51:13.906Z,11.23
2019-05-17T05:53:45.495Z,11.08
2019-05-17T05:56:16.369Z,8.70
2019-05-17T05:58:47.658Z,10.40
2019-05-17T06:01:18.676Z,9.45
2019-05-17T06:03:51.894Z,10.03
2019-05-17T06:06:22.134Z,9.70
2019-05-17T06:08:53.495Z,9.25
2019-05-17T06:11:24.929Z,8.75
2019-05-17T06:13:56.307Z,9.53
2019-05-17T06:16:27.265Z,8.65
2019-05-17T06:18:58.163Z,9.65
2019-05-17T06:21:29.094Z,8.70
2019-05-17T06:24:02.421Z,8.03
2019-05-17T06:26:32.643Z,9.13
2019-05-17T06:29:03.613Z,7.95
2019-05-17T06:31:36.879Z,9.78
2019-05-17T06:34:06.899Z,8.45
2019-05-17T06:36:37.908Z,7.85
2019-05-17T06:39:11.679Z,8.03
2019-05-17T06:41:42.308Z,8.20
2019-05-17T06:44:13.149Z,8.05
2019-05-17T06:46:44.449Z,7.45
2019-05-17T06:49:16.456Z,7.37
2019-05-17T06:51:47.223Z,7.53
2019-05-17T06:54:18.191Z,7.00
2019-05-17T06:56:49.273Z,7.03
2019-05-17T06:59:21.161Z,7.65
2019-05-17T07:01:52.259Z,7.22
2019-05-17T07:04:23.150Z,7.25
2019-05-17T07:07:11.682Z,6.47
2019-05-17T07:09:42.723Z,7.60
2019-05-17T07:12:13.954Z,7.62
2019-05-17T07:14:44.821Z,7.03
2019-05-17T07:17:15.618Z,6.20
2019-05-17T07:19:46.453Z,7.03
2019-05-17T07:22:17.438Z,6.00
2019-05-17T07:24:50.245Z,5.40
2019-05-17T07:27:21.552Z,6.05
2019-05-17T07:29:52.929Z,6.25
2019-05-17T07:32:23.817Z,5.47
2019-05-17T07:34:54.858Z,5.92
2019-05-17T07:37:25.827Z,6.42
2019-05-17T07:40:03.962Z,5.60
2019-05-17T07:42:32.997Z,5.12
2019-05-17T07:45:04.445Z,6.50
2019-05-17T07:47:35.353Z,6.67
2019-05-17T07:50:06.305Z,5.80
2019-05-17T07:52:39.579Z,5.97
2019-05-17T07:55:11.075Z,5.90
2019-05-17T07:57:42.251Z,5.83
2019-05-17T08:00:14.040Z,5.42
2019-05-17T08:02:45.375Z,5.40
2019-05-17T08:05:16.911Z,4.72
2019-05-17T08:07:49.979Z,6.08
2019-05-17T08:10:22.082Z,5.37
2019-05-17T08:12:53.116Z,5.62
2019-05-17T08:15:24.246Z,4.60
2019-05-17T08:17:58.317Z,5.62
2019-05-17T08:20:29.916Z,4.33
2019-05-17T08:23:01.281Z,4.65
2019-05-17T08:25:32.424Z,4.50
2019-05-17T08:28:04.665Z,3.30
2019-05-17T08:30:36.695Z,3.95
2019-05-17T08:33:10.776Z,3.65
2019-05-17T08:35:41.196Z,2.90
2019-05-17T08:38:12.133Z,3.12
2019-05-17T08:40:43.121Z,3.30
2019-05-17T08:43:14.825Z,3.45
2019-05-17T08:45:45.955Z,3.37
2019-05-17T08:48:16.950Z,3.42
2019-05-17T08:50:49.465Z,3.22
2019-05-17T08:53:20.375Z,3.30
2019-05-17T08:55:51.377Z,3.80
2019-05-17T08:58:22.375Z,2.90
2019-05-17T09:00:53.343Z,2.75
2019-05-17T09:03:24.650Z,3.10
2019-05-17T09:05:55.541Z,3.05
2019-05-17T09:08:26.489Z,3.65
2019-05-17T09:11:00.084Z,3.62
2019-05-17T09:13:30.045Z,3.30
2019-05-17T09:16:02.047Z,3.55
2019-05-17T09:18:32.973Z,4.00
2019-05-17T09:21:03.924Z,4.10
2019-05-17T09:23:34.997Z,3.92
2019-05-17T09:26:06.011Z,3.80
2019-05-17T09:28:39.236Z,3.42
2019-05-17T09:31:10.658Z,3.45
2019-05-17T09:33:41.554Z,4.12
2019-05-17T09:36:12.703Z,4.28
2019-05-17T09:38:43.656Z,3.35
2019-05-17T09:41:15.702Z,3.60
2019-05-17T09:43:49.645Z,4.42
2019-05-17T09:46:21.029Z,3.70
2019-05-17T09:48:51.952Z,4.28
2019-05-17T09:51:22.873Z,4.12
2019-05-17T09:53:54.127Z,3.80
2019-05-17T09:56:25.250Z,3.80
2019-05-17T09:58:56.193Z,3.83
2019-05-17T10:01:27.549Z,3.30
2019-05-17T10:03:59.904Z,3.75
2019-05-17T10:06:31.076Z,3.25
2019-05-17T10:09:02.009Z,4.37
2019-05-17T10:11:35.574Z,2.95
2019-05-17T10:14:06.641Z,3.30
2019-05-17T10:16:37.759Z,3.05
2019-05-17T10:19:09.689Z,3.37
2019-05-17T10:21:40.721Z,3.72
2019-05-17T10:24:11.867Z,3.25
2019-05-17T10:26:44.851Z,3.00
2019-05-17T10:29:15.778Z,3.12
2019-05-17T10:31:47.321Z,2.85
2019-05-17T10:34:20.223Z,2.90
2019-05-17T10:36:50.830Z,2.87
2019-05-17T10:39:22.972Z,2.92
2019-05-17T10:41:53.909Z,2.72
2019-05-17T10:44:25.085Z,3.08
2019-05-17T10:46:56.149Z,2.70
2019-05-17T10:49:29.419Z,2.87
2019-05-17T10:52:00.328Z,2.80
2019-05-17T10:54:31.241Z,2.70
2019-05-17T10:57:02.463Z,3.08
2019-05-17T10:59:33.669Z,3.70
2019-05-17T11:02:04.837Z,2.12
2019-05-17T11:04:35.842Z,3.27
2019-05-17T11:07:06.981Z,2.55
2019-05-17T11:09:40.125Z,2.77
2019-05-17T11:12:13.018Z,2.25
2019-05-17T11:14:55.874Z,2.50
2019-05-17T11:17:16.793Z,2.52
2019-05-17T11:19:47.995Z,2.60
2019-05-17T11:22:19.374Z,3.00
2019-05-17T11:24:50.388Z,2.98
2019-05-17T11:27:21.306Z,2.77
2019-05-17T11:29:52.514Z,2.22
2019-05-17T11:32:23.531Z,2.25
2019-05-17T11:34:54.520Z,2.33
2019-05-17T11:37:25.864Z,2.60
2019-05-17T11:39:56.849Z,2.35
2019-05-17T11:42:27.759Z,2.30
2019-05-17T11:44:58.731Z,2.47
2019-05-17T11:47:29.756Z,2.55
2019-05-17T11:50:00.988Z,2.70
2019-05-17T11:52:31.909Z,2.47
2019-05-17T11:55:06.184Z,1.95
2019-05-17T11:57:37.297Z,2.70
2019-05-17T12:00:10.109Z,2.08
2019-05-17T12:02:42.290Z,2.85
2019-05-17T12:05:13.576Z,3.00
2019-05-17T12:07:46.013Z,2.22
2019-05-17T12:10:18.615Z,2.52
2019-05-17T12:12:49.822Z,2.30
2019-05-17T12:15:20.894Z,1.70
2019-05-17T12:17:51.703Z,2.02
2019-05-17T12:20:22.928Z,2.30
2019-05-17T12:22:53.857Z,2.67
2019-05-17T12:25:24.835Z,2.17
2019-05-17T12:27:55.778Z,2.35
2019-05-17T12:30:26.628Z,2.50
2019-05-17T12:32:57.814Z,2.45
2019-05-17T12:35:28.575Z,2.37
2019-05-17T12:37:59.645Z,2.35
2019-05-17T12:40:30.629Z,1.95
2019-05-17T12:43:01.672Z,1.60
2019-05-17T12:45:33.025Z,1.60
2019-05-17T12:48:04.432Z,2.25
2019-05-17T12:50:35.513Z,1.98
2019-05-17T12:53:06.423Z,2.12
2019-05-17T12:55:37.270Z,1.82
2019-05-17T12:58:08.821Z,2.08
2019-05-17T13:00:39.832Z,2.98
2019-05-17T13:03:10.945Z,1.65
2019-05-17T13:05:42.246Z,1.95
2019-05-17T13:08:13.425Z,2.10
2019-05-17T13:10:44.459Z,2.20
2019-05-17T13:13:15.915Z,2.27
2019-05-17T13:15:47.221Z,2.27
2019-05-17T13:18:18.098Z,1.67
2019-05-17T13:20:49.311Z,2.40
2019-05-17T13:23:20.479Z,2.00
2019-05-17T13:25:51.367Z,1.72
2019-05-17T13:28:22.570Z,2.10
2019-05-17T13:30:54.576Z,1.95
2019-05-17T13:33:28.985Z,1.75
2019-05-17T13:35:58.574Z,2.27
2019-05-17T13:38:29.584Z,2.50
2019-05-17T13:41:00.589Z,1.92
2019-05-17T13:43:31.844Z,1.45
2019-05-17T13:46:02.786Z,2.02
2019-05-17T13:48:33.717Z,1.90
2019-05-17T13:51:05.118Z,2.25
2019-05-17T13:53:38.208Z,2.40
2019-05-17T13:56:09.115Z,1.87
2019-05-17T13:58:40.108Z,2.12
2019-05-17T14:01:12.989Z,2.22
2019-05-17T14:03:43.833Z,1.95
2019-05-17T14:06:14.735Z,1.70
2019-05-17T14:08:45.777Z,1.70
2019-05-17T14:11:16.803Z,2.05
2019-05-17T14:13:47.851Z,2.30
2019-05-17T14:16:19.239Z,2.30
2019-05-17T14:18:51.258Z,2.12
2019-05-17T14:21:22.364Z,1.52
2019-05-17T14:23:53.332Z,1.80
2019-05-17T14:26:24.340Z,2.12
2019-05-17T14:28:55.946Z,2.12
2019-05-17T14:31:26.866Z,1.77
2019-05-17T14:33:58.353Z,1.60
2019-05-17T14:36:29.397Z,2.05
2019-05-17T14:39:00.237Z,1.70
2019-05-17T14:41:31.412Z,2.10
2019-05-17T14:44:03.366Z,2.02
2019-05-17T14:46:34.173Z,1.90
2019-05-17T14:49:06.421Z,1.67
2019-05-17T14:51:37.293Z,1.42
2019-05-17T14:54:08.190Z,1.85
2019-05-17T14:56:39.305Z,1.98
2019-05-17T14:59:10.212Z,1.57
2019-05-17T15:01:41.230Z,1.92
2019-05-17T15:04:12.322Z,1.75
2019-05-17T15:06:43.356Z,1.57
2019-05-17T15:09:16.063Z,1.92
2019-05-17T15:11:46.912Z,1.92
2019-05-17T15:14:18.146Z,6.10
2019-05-17T15:16:48.962Z,1.87
2019-05-17T15:19:19.799Z,2.33
2019-05-17T15:21:50.846Z,2.20
2019-05-17T15:24:21.982Z,2.87
2019-05-17T15:27:04.787Z,2.00
2019-05-17T15:29:25.810Z,2.67
2019-05-17T15:31:58.296Z,3.10
2019-05-17T15:34:29.158Z,2.80
2019-05-17T15:37:00.035Z,2.52
2019-05-17T15:39:31.027Z,2.50
2019-05-17T15:42:01.948Z,2.30
2019-05-17T15:44:32.904Z,2.98
2019-05-17T15:47:03.845Z,2.20
2019-05-17T15:49:34.828Z,2.75
2019-05-17T15:52:07.080Z,2.62
2019-05-17T15:54:38.663Z,2.10
2019-05-17T15:57:11.105Z,2.75
2019-05-17T15:59:42.186Z,3.20
2019-05-17T16:02:13.321Z,2.92
2019-05-17T16:04:44.451Z,2.55
2019-05-17T16:07:15.539Z,2.22
2019-05-17T16:09:47.435Z,2.72
2019-05-17T16:12:18.970Z,2.47
2019-05-17T16:14:51.299Z,3.08
2019-05-17T16:17:22.543Z,2.77
2019-05-17T16:19:53.441Z,2.70
2019-05-17T16:22:24.794Z,2.75
2019-05-17T16:24:55.680Z,2.33
2019-05-17T16:27:26.550Z,2.92
2019-05-17T16:29:57.477Z,3.12
2019-05-17T16:32:28.509Z,3.45
2019-05-17T16:34:59.504Z,3.40
2019-05-17T16:37:30.361Z,3.55
2019-05-17T16:40:01.193Z,2.27
2019-05-17T16:42:33.366Z,3.12
2019-05-17T16:45:04.502Z,2.72
2019-05-17T16:47:35.406Z,2.65
2019-05-17T16:50:06.825Z,2.50
2019-05-17T16:52:37.755Z,2.67
2019-05-17T16:55:09.097Z,3.05
2019-05-17T16:57:40.128Z,2.65
2019-05-17T17:00:30.462Z,3.08
2019-05-17T17:03:01.287Z,2.52
2019-05-17T17:05:32.270Z,3.00
2019-05-17T17:08:03.249Z,2.98
2019-05-17T17:10:34.125Z,3.35
2019-05-17T17:13:05.132Z,3.22
2019-05-17T17:15:36.048Z,3.00
2019-05-17T17:18:07.044Z,3.02
2019-05-17T17:20:38.010Z,3.72
2019-05-17T17:23:09.067Z,2.72
2019-05-17T17:25:40.012Z,2.75
2019-05-17T17:28:10.888Z,2.90
2019-05-17T17:30:41.820Z,3.17
2019-05-17T17:33:12.666Z,2.60
2019-05-17T17:35:43.919Z,3.27
2019-05-17T17:38:14.699Z,3.40
2019-05-17T17:40:45.589Z,2.55
2019-05-17T17:43:16.980Z,2.67
2019-05-17T17:45:47.916Z,2.35
2019-05-17T17:48:18.803Z,2.87
2019-05-17T17:50:50.083Z,3.10
2019-05-17T17:53:21.101Z,3.02
2019-05-17T17:55:52.230Z,2.62
2019-05-17T17:58:23.243Z,3.08
2019-05-17T18:00:54.168Z,3.12
2019-05-17T18:03:25.593Z,2.62
2019-05-17T18:05:56.462Z,2.67
2019-05-17T18:08:27.390Z,2.50
2019-05-17T18:10:58.367Z,2.90
2019-05-17T18:13:29.559Z,2.92
2019-05-17T18:16:01.472Z,2.83
2019-05-17T18:18:32.416Z,2.33
2019-05-17T18:21:03.349Z,2.60
2019-05-17T18:23:34.186Z,2.62
2019-05-17T18:26:05.547Z,2.20
2019-05-17T18:28:36.679Z,2.08
2019-05-17T18:31:15.247Z,2.30
2019-05-17T18:33:46.177Z,2.20
2019-05-17T18:36:17.075Z,2.40
2019-05-17T18:38:51.164Z,2.60
2019-05-17T18:41:23.071Z,2.25
2019-05-17T18:43:53.951Z,3.25
2019-05-17T18:46:24.919Z,2.95
2019-05-17T18:48:55.876Z,2.62
2019-05-17T18:51:27.128Z,1.90
2019-05-17T18:53:58.415Z,3.08
2019-05-17T18:56:35.301Z,2.00
2019-05-17T18:59:07.012Z,3.17
2019-05-17T19:01:37.895Z,2.40
2019-05-17T19:04:08.806Z,2.70
2019-05-17T19:06:39.818Z,2.70
2019-05-17T19:09:10.725Z,2.10
2019-05-17T19:11:41.667Z,3.23
2019-05-17T19:14:12.527Z,2.77
2019-05-17T19:16:43.401Z,3.27
2019-05-17T19:19:14.332Z,2.93
2019-05-17T19:21:45.232Z,2.77
2019-05-17T19:24:17.234Z,2.93
2019-05-17T19:26:48.078Z,2.93
2019-05-17T19:29:19.071Z,3.27
2019-05-17T19:31:49.996Z,3.22
2019-05-17T19:34:20.909Z,2.57
2019-05-17T19:36:51.833Z,3.37
2019-05-17T19:39:22.777Z,3.17
2019-05-17T19:41:53.686Z,3.03
2019-05-17T19:44:24.654Z,2.70
2019-05-17T19:46:55.576Z,3.20
2019-05-17T19:49:32.986Z,3.00
2019-05-17T19:52:04.174Z,3.20
2019-05-17T19:54:35.180Z,2.90
2019-05-17T19:57:06.097Z,3.17
2019-05-17T19:59:37.065Z,2.83
2019-05-17T20:02:08.067Z,3.10
2019-05-17T20:04:39.065Z,3.20
2019-05-17T20:07:10.357Z,3.17
2019-05-17T20:09:41.569Z,3.10
2019-05-17T20:12:12.702Z,3.20
2019-05-17T20:14:43.909Z,3.13
2019-05-17T20:17:14.894Z,3.30
2019-05-17T20:19:45.847Z,3.63
2019-05-17T20:22:16.813Z,3.33
2019-05-17T20:24:47.756Z,3.40
2019-05-17T20:27:18.725Z,3.00
2019-05-17T20:29:50.647Z,2.80
2019-05-17T20:32:21.626Z,3.67
2019-05-17T20:34:52.580Z,3.73
2019-05-17T20:37:23.562Z,3.83
2019-05-17T20:39:54.476Z,3.40
2019-05-17T20:42:25.381Z,2.57
2019-05-17T20:44:56.329Z,3.70
2019-05-17T20:47:27.242Z,3.83
2019-05-17T20:49:58.254Z,3.60
2019-05-17T20:52:29.122Z,4.77
2019-05-17T20:55:00.087Z,5.73
2019-05-17T20:57:30.951Z,6.23
2019-05-17T21:00:02.734Z,6.77
2019-05-17T21:02:35.259Z,6.70
2019-05-17T21:05:07.709Z,7.67
2019-05-17T21:07:38.624Z,5.17
2019-05-17T21:10:10.678Z,5.97
2019-05-17T21:12:41.649Z,5.47
2019-05-17T21:15:12.688Z,6.67
2019-05-17T21:17:43.668Z,5.47
2019-05-17T21:20:14.756Z,6.90
2019-05-17T21:22:45.672Z,7.20
2019-05-17T21:25:16.987Z,6.20
2019-05-17T21:27:47.992Z,5.13
2019-05-17T21:30:19.169Z,4.37
2019-05-17T21:32:50.047Z,5.60
2019-05-17T21:35:20.941Z,4.47
2019-05-17T21:37:52.091Z,4.30
2019-05-17T21:40:23.056Z,3.47
2019-05-17T21:42:53.951Z,3.87
2019-05-17T21:45:24.877Z,3.47
2019-05-17T21:47:55.818Z,3.57
2019-05-17T21:50:26.687Z,4.00
2019-05-17T21:52:57.578Z,3.83
2019-05-17T21:55:28.440Z,4.03
2019-05-17T21:57:59.305Z,3.43
2019-05-17T22:01:22.550Z,3.77
2019-05-17T22:03:53.613Z,3.70
2019-05-17T22:06:24.543Z,3.90
2019-05-17T22:08:55.389Z,3.23
2019-05-17T22:11:26.386Z,2.90
2019-05-17T22:13:57.186Z,3.80
2019-05-17T22:16:28.059Z,3.50
2019-05-17T22:18:59.896Z,3.77
2019-05-17T22:21:30.749Z,3.60
2019-05-17T22:24:01.645Z,3.90
2019-05-17T22:26:32.556Z,3.37
2019-05-17T22:29:03.507Z,4.10
2019-05-17T22:31:34.447Z,3.60
2019-05-17T22:34:05.356Z,3.90
2019-05-17T22:36:36.356Z,3.73
2019-05-17T22:39:08.173Z,3.90
2019-05-17T22:41:39.130Z,3.37
2019-05-17T22:44:09.975Z,3.83
2019-05-17T22:46:40.828Z,3.30
2019-05-17T22:49:11.786Z,3.70
2019-05-17T22:51:42.645Z,3.70
2019-05-17T22:54:13.634Z,3.43
2019-05-17T22:56:44.609Z,3.77
2019-05-17T22:59:15.484Z,3.87
2019-05-17T23:01:46.348Z,3.63
2019-05-17T23:04:17.280Z,3.47
2019-05-17T23:06:48.113Z,3.73
2019-05-17T23:09:19.391Z,3.27
2019-05-17T23:11:50.264Z,3.80
2019-05-17T23:14:21.093Z,3.93
2019-05-17T23:16:52.276Z,3.50
2019-05-17T23:19:23.323Z,4.07
2019-05-17T23:21:54.249Z,4.60
2019-05-17T23:24:25.078Z,3.90
2019-05-17T23:26:57.023Z,3.70
2019-05-17T23:29:27.911Z,3.50
2019-05-17T23:31:58.744Z,3.60
2019-05-17T23:34:29.671Z,4.13
2019-05-17T23:37:00.570Z,3.73
2019-05-17T23:39:31.449Z,4.17
2019-05-17T23:42:02.332Z,3.83
2019-05-17T23:44:33.311Z,3.27
2019-05-17T23:47:06.944Z,4.03
2019-05-17T23:49:36.644Z,3.73
2019-05-17T23:52:07.538Z,4.07
2019-05-17T23:54:39.460Z,3.80
2019-05-17T23:57:10.689Z,4.00
2019-05-17T23:59:41.500Z,3.63
